createdAt,value
2019-01-15T00:00:25.729Z,101100.77
2019-01-15T00:01:29.284Z,101095.78
2019-01-15T00:02:32.955Z,101097.41
2019-01-15T00:03:36.635Z,101102.65
2019-01-15T00:04:40.128Z,101099.65
2019-01-15T00:05:43.677Z,101104.02
2019-01-15T00:06:47.255Z,101099.91
2019-01-15T00:07:50.825Z,101096.91
2019-01-15T00:08:54.346Z,101104.02
2019-01-15T00:09:57.824Z,101100.47
2019-01-15T00:11:02.144Z,101103.77
2019-01-15T00:12:07.929Z,101106.27
2019-01-15T00:13:11.305Z,101112.88
2019-01-15T00:14:14.895Z,101111.50
2019-01-15T00:15:18.523Z,101110.12
2019-01-15T00:16:22.004Z,101107.13
2019-01-15T00:17:25.502Z,101110.15
2019-01-15T00:18:29.088Z,101111.52
2019-01-15T00:19:32.602Z,101106.88
2019-01-15T00:20:36.239Z,101106.03
2019-01-15T00:21:39.744Z,101108.24
2019-01-15T00:22:43.329Z,101106.59
2019-01-15T00:23:46.851Z,101104.96
2019-01-15T00:24:50.337Z,101107.70
2019-01-15T00:25:53.921Z,101104.96
2019-01-15T00:26:57.463Z,101096.72
2019-01-15T00:28:01.026Z,101102.52
2019-01-15T00:29:04.770Z,101107.45
2019-01-15T00:30:14.425Z,101109.64
2019-01-15T00:31:18.021Z,101112.69
2019-01-15T00:32:21.527Z,101109.39
2019-01-15T00:33:25.087Z,101107.76
2019-01-15T00:34:28.595Z,101115.19
2019-01-15T00:35:32.169Z,101114.37
2019-01-15T00:36:35.747Z,101111.63
2019-01-15T00:37:39.228Z,101112.18
2019-01-15T00:38:42.814Z,101117.67
2019-01-15T00:39:46.353Z,101116.30
2019-01-15T00:40:49.901Z,101124.28
2019-01-15T00:41:53.426Z,101113.34
2019-01-15T00:42:56.963Z,101125.40
2019-01-15T00:44:00.460Z,101117.72
2019-01-15T00:45:05.226Z,101118.28
2019-01-15T00:46:08.804Z,101123.77
2019-01-15T00:47:12.335Z,101127.08
2019-01-15T00:48:15.797Z,101121.89
2019-01-15T00:49:24.534Z,101123.52
2019-01-15T00:50:28.203Z,101124.64
2019-01-15T00:51:31.749Z,101126.88
2019-01-15T00:52:35.321Z,101131.24
2019-01-15T00:53:39.578Z,101131.55
2019-01-15T00:54:43.085Z,101122.75
2019-01-15T00:55:46.718Z,101123.56
2019-01-15T00:56:50.287Z,101122.50
2019-01-15T00:57:53.841Z,101118.37
2019-01-15T00:58:57.410Z,101114.27
2019-01-15T01:00:01.000Z,101111.52
2019-01-15T01:01:04.729Z,101112.89
2019-01-15T01:02:08.447Z,101113.16
2019-01-15T01:03:12.001Z,101106.05
2019-01-15T01:04:15.828Z,101103.30
2019-01-15T01:05:19.888Z,101105.23
2019-01-15T01:06:23.525Z,101104.98
2019-01-15T01:07:27.025Z,101115.95
2019-01-15T01:08:30.654Z,101106.91
2019-01-15T01:09:34.175Z,101104.47
2019-01-15T01:10:37.764Z,101112.70
2019-01-15T01:11:41.384Z,101101.72
2019-01-15T01:12:45.126Z,101106.14
2019-01-15T01:13:48.617Z,101108.89
2019-01-15T01:14:52.189Z,101114.38
2019-01-15T01:15:55.825Z,101107.82
2019-01-15T01:16:59.384Z,101115.24
2019-01-15T01:18:02.943Z,101115.80
2019-01-15T01:19:06.554Z,101114.17
2019-01-15T01:20:13.249Z,101118.03
2019-01-15T01:21:16.844Z,101118.59
2019-01-15T01:22:20.498Z,101121.09
2019-01-15T01:23:24.225Z,101123.52
2019-01-15T01:24:27.848Z,101129.06
2019-01-15T01:25:31.473Z,101131.25
2019-01-15T01:26:35.079Z,101134.55
2019-01-15T01:27:38.694Z,101127.96
2019-01-15T01:28:42.186Z,101127.15
2019-01-15T01:29:45.749Z,101127.70
2019-01-15T01:30:49.238Z,101127.45
2019-01-15T01:31:52.827Z,101128.82
2019-01-15T01:32:56.464Z,101122.82
2019-01-15T01:34:00.032Z,101135.17
2019-01-15T01:35:04.015Z,101136.55
2019-01-15T01:36:07.572Z,101137.66
2019-01-15T01:37:11.161Z,101142.03
2019-01-15T01:38:14.646Z,101142.94
2019-01-15T01:39:18.139Z,101142.34
2019-01-15T01:40:21.791Z,101144.27
2019-01-15T01:41:25.362Z,101147.02
2019-01-15T01:42:29.561Z,101144.27
2019-01-15T01:43:33.385Z,101139.59
2019-01-15T01:44:36.895Z,101146.75
2019-01-15T01:45:40.381Z,101138.52
2019-01-15T01:46:43.949Z,101145.38
2019-01-15T01:47:47.700Z,101145.38
2019-01-15T01:48:51.253Z,101141.01
2019-01-15T01:49:54.831Z,101140.75
2019-01-15T01:50:58.310Z,101133.08
2019-01-15T01:52:01.843Z,101129.22
2019-01-15T01:53:05.438Z,101128.66
2019-01-15T01:54:08.989Z,101126.22
2019-01-15T01:55:14.035Z,101131.15
2019-01-15T01:56:17.516Z,101131.45
2019-01-15T01:57:21.106Z,101136.38
2019-01-15T01:58:24.781Z,101137.50
2019-01-15T01:59:28.255Z,101139.43
2019-01-15T02:00:31.906Z,101144.10
2019-01-15T02:01:35.426Z,101141.36
2019-01-15T02:02:39.036Z,101143.59
2019-01-15T02:03:42.655Z,101142.22
2019-01-15T02:04:46.136Z,101144.67
2019-01-15T02:05:49.698Z,101145.79
2019-01-15T02:06:53.278Z,101143.30
2019-01-15T02:07:56.773Z,101144.98
2019-01-15T02:09:00.457Z,101141.41
2019-01-15T02:10:05.221Z,101140.05
2019-01-15T02:11:08.771Z,101147.46
2019-01-15T02:12:12.524Z,101139.78
2019-01-15T02:13:16.055Z,101138.16
2019-01-15T02:14:19.638Z,101145.02
2019-01-15T02:15:23.390Z,101143.65
2019-01-15T02:16:27.088Z,101143.65
2019-01-15T02:17:30.649Z,101140.64
2019-01-15T02:18:34.217Z,101142.02
2019-01-15T02:19:37.729Z,101146.14
2019-01-15T02:20:41.379Z,101142.58
2019-01-15T02:21:44.924Z,101135.77
2019-01-15T02:22:48.635Z,101144.80
2019-01-15T02:23:52.221Z,101144.25
2019-01-15T02:24:55.761Z,101152.22
2019-01-15T02:25:59.337Z,101140.44
2019-01-15T02:27:04.548Z,101139.63
2019-01-15T02:28:08.230Z,101136.88
2019-01-15T02:29:11.865Z,101140.73
2019-01-15T02:30:20.755Z,101142.66
2019-01-15T02:31:24.239Z,101148.97
2019-01-15T02:32:27.757Z,101147.34
2019-01-15T02:33:31.242Z,101149.83
2019-01-15T02:34:34.787Z,101156.13
2019-01-15T02:35:38.341Z,101158.05
2019-01-15T02:36:41.833Z,101157.51
2019-01-15T02:37:45.409Z,101155.05
2019-01-15T02:38:48.887Z,101155.33
2019-01-15T02:39:52.373Z,101151.50
2019-01-15T02:40:55.983Z,101150.66
2019-01-15T02:41:59.548Z,101142.16
2019-01-15T02:43:03.130Z,101146.83
2019-01-15T02:44:06.789Z,101148.20
2019-01-15T02:45:13.222Z,101146.27
2019-01-15T02:46:16.757Z,101144.89
2019-01-15T02:47:20.232Z,101141.34
2019-01-15T02:48:23.869Z,101136.41
2019-01-15T02:49:27.403Z,101144.34
2019-01-15T02:50:30.904Z,101140.22
2019-01-15T02:51:34.397Z,101138.85
2019-01-15T02:52:37.950Z,101138.85
2019-01-15T02:53:41.457Z,101139.11
2019-01-15T02:54:45.007Z,101132.81
2019-01-15T02:55:48.513Z,101141.85
2019-01-15T02:56:52.037Z,101134.73
2019-01-15T02:57:55.581Z,101138.30
2019-01-15T02:58:59.094Z,101133.92
2019-01-15T03:00:02.645Z,101133.36
2019-01-15T03:01:06.196Z,101135.30
2019-01-15T03:02:09.873Z,101132.82
2019-01-15T03:03:13.390Z,101130.08
2019-01-15T03:04:16.978Z,101131.45
2019-01-15T03:05:21.022Z,101129.82
2019-01-15T03:06:24.512Z,101122.15
2019-01-15T03:07:28.190Z,101121.86
2019-01-15T03:08:31.672Z,101115.84
2019-01-15T03:09:35.149Z,101116.94
2019-01-15T03:10:38.709Z,101112.00
2019-01-15T03:11:42.271Z,101111.19
2019-01-15T03:12:54.924Z,101105.45
2019-01-15T03:13:52.799Z,101108.75
2019-01-15T03:14:56.280Z,101113.16
2019-01-15T03:15:59.866Z,101112.91
2019-01-15T03:17:03.408Z,101111.28
2019-01-15T03:18:06.975Z,101113.77
2019-01-15T03:19:10.550Z,101108.83
2019-01-15T03:20:16.288Z,101108.63
2019-01-15T03:21:19.780Z,101118.73
2019-01-15T03:22:23.285Z,101121.78
2019-01-15T03:23:26.799Z,101117.38
2019-01-15T03:24:30.407Z,101117.94
2019-01-15T03:25:34.637Z,101120.98
2019-01-15T03:26:38.110Z,101114.12
2019-01-15T03:27:41.688Z,101117.67
2019-01-15T03:28:45.293Z,101120.72
2019-01-15T03:29:48.889Z,101111.98
2019-01-15T03:30:52.433Z,101112.79
2019-01-15T03:31:55.884Z,101112.53
2019-01-15T03:32:59.470Z,101101.05
2019-01-15T03:34:02.970Z,101102.42
2019-01-15T03:35:07.391Z,101099.42
2019-01-15T03:36:11.036Z,101099.16
2019-01-15T03:37:14.587Z,101099.16
2019-01-15T03:38:18.095Z,101102.72
2019-01-15T03:39:21.620Z,101090.13
2019-01-15T03:40:25.545Z,101087.69
2019-01-15T03:41:29.190Z,101084.94
2019-01-15T03:42:32.682Z,101083.56
2019-01-15T03:43:36.230Z,101087.69
2019-01-15T03:44:39.841Z,101091.49
2019-01-15T03:45:43.456Z,101094.28
2019-01-15T03:46:47.047Z,101091.54
2019-01-15T03:47:50.676Z,101091.28
2019-01-15T03:48:54.162Z,101099.77
2019-01-15T03:49:57.779Z,101096.20
2019-01-15T03:51:01.339Z,101093.20
2019-01-15T03:52:05.066Z,101089.62
2019-01-15T03:53:08.736Z,101097.84
2019-01-15T03:54:12.302Z,101094.02
2019-01-15T03:55:16.340Z,101092.36
2019-01-15T03:56:19.883Z,101094.58
2019-01-15T03:57:23.401Z,101092.65
2019-01-15T03:58:27.046Z,101094.02
2019-01-15T03:59:30.635Z,101087.42
2019-01-15T04:00:34.272Z,101087.98
2019-01-15T04:01:37.770Z,101089.01
2019-01-15T04:02:41.618Z,101085.41
2019-01-15T04:03:45.153Z,101088.11
2019-01-15T04:04:49.238Z,101096.03
2019-01-15T04:05:52.720Z,101098.73
2019-01-15T04:06:56.462Z,101097.35
2019-01-15T04:08:00.290Z,101097.86
2019-01-15T04:09:05.703Z,101096.41
2019-01-15T04:10:10.455Z,101093.90
2019-01-15T04:11:13.972Z,101087.75
2019-01-15T04:12:17.474Z,101089.54
2019-01-15T04:13:21.969Z,101080.69
2019-01-15T04:14:25.560Z,101073.68
2019-01-15T04:15:29.178Z,101082.05
2019-01-15T04:16:32.674Z,101077.58
2019-01-15T04:17:36.231Z,101079.08
2019-01-15T04:18:39.810Z,101072.01
2019-01-15T04:19:43.321Z,101071.07
2019-01-15T04:20:48.601Z,101073.91
2019-01-15T04:21:52.162Z,101075.09
2019-01-15T04:22:55.726Z,101068.09
2019-01-15T04:23:59.226Z,101068.82
2019-01-15T04:25:02.781Z,101066.12
2019-01-15T04:26:06.432Z,101063.77
2019-01-15T04:27:09.997Z,101058.93
2019-01-15T04:28:13.552Z,101061.81
2019-01-15T04:29:17.213Z,101064.16
2019-01-15T04:30:21.897Z,101062.91
2019-01-15T04:31:25.400Z,101069.47
2019-01-15T04:32:28.902Z,101068.28
2019-01-15T04:33:32.454Z,101068.50
2019-01-15T04:34:36.069Z,101061.56
2019-01-15T04:35:39.643Z,101063.69
2019-01-15T04:36:43.182Z,101061.88
2019-01-15T04:37:46.743Z,101069.21
2019-01-15T04:38:50.344Z,101072.15
2019-01-15T04:39:53.946Z,101068.52
2019-01-15T04:40:57.697Z,101065.70
2019-01-15T04:42:01.321Z,101068.70
2019-01-15T04:43:04.899Z,101062.89
2019-01-15T04:44:08.529Z,101064.33
2019-01-15T04:45:14.764Z,101069.27
2019-01-15T04:46:18.359Z,101064.08
2019-01-15T04:47:21.897Z,101059.08
2019-01-15T04:48:25.558Z,101056.53
2019-01-15T04:49:29.147Z,101057.35
2019-01-15T04:50:32.636Z,101054.59
2019-01-15T04:51:36.192Z,101056.47
2019-01-15T04:52:41.563Z,101051.19
2019-01-15T04:53:45.062Z,101051.99
2019-01-15T04:54:48.548Z,101047.62
2019-01-15T04:55:52.187Z,101045.19
2019-01-15T04:56:55.989Z,101038.34
2019-01-15T04:57:59.581Z,101043.53
2019-01-15T04:59:03.393Z,101047.37
2019-01-15T05:00:09.944Z,101050.97
2019-01-15T05:01:13.527Z,101045.11
2019-01-15T05:02:17.071Z,101049.73
2019-01-15T05:03:20.709Z,101045.92
2019-01-15T05:04:24.275Z,101053.62
2019-01-15T05:05:27.845Z,101046.42
2019-01-15T05:06:31.559Z,101047.98
2019-01-15T05:07:35.132Z,101041.17
2019-01-15T05:08:38.759Z,101051.61
2019-01-15T05:09:42.263Z,101048.05
2019-01-15T05:10:47.048Z,101046.60
2019-01-15T05:11:50.513Z,101047.48
2019-01-15T05:12:54.018Z,101044.48
2019-01-15T05:13:57.512Z,101047.55
2019-01-15T05:15:01.026Z,101046.24
2019-01-15T05:16:04.744Z,101044.86
2019-01-15T05:17:08.358Z,101047.94
2019-01-15T05:18:11.933Z,101048.75
2019-01-15T05:19:15.459Z,101043.03
2019-01-15T05:20:20.203Z,101040.06
2019-01-15T05:21:23.836Z,101040.95
2019-01-15T05:22:27.394Z,101040.13
2019-01-15T05:23:30.987Z,101042.95
2019-01-15T05:24:34.551Z,101032.83
2019-01-15T05:25:38.112Z,101036.45
2019-01-15T05:26:41.625Z,101039.70
2019-01-15T05:27:45.265Z,101040.52
2019-01-15T05:28:48.776Z,101033.89
2019-01-15T05:29:52.332Z,101030.19
2019-01-15T05:30:55.879Z,101036.75
2019-01-15T05:31:59.391Z,101035.66
2019-01-15T05:33:02.932Z,101031.53
2019-01-15T05:34:06.591Z,101034.00
2019-01-15T05:35:10.432Z,101033.16
2019-01-15T05:36:14.656Z,101038.34
2019-01-15T05:37:18.256Z,101035.09
2019-01-15T05:38:21.767Z,101028.81
2019-01-15T05:39:25.262Z,101032.69
2019-01-15T05:40:28.792Z,101025.07
2019-01-15T05:41:32.341Z,101026.02
2019-01-15T05:42:35.963Z,101028.77
2019-01-15T05:43:39.532Z,101024.17
2019-01-15T05:44:43.002Z,101033.45
2019-01-15T05:45:47.506Z,101024.48
2019-01-15T05:46:51.036Z,101033.80
2019-01-15T05:47:55.486Z,101029.08
2019-01-15T05:48:58.994Z,101027.45
2019-01-15T05:50:02.610Z,101022.70
2019-01-15T05:51:07.821Z,101023.20
2019-01-15T05:52:11.400Z,101030.08
2019-01-15T05:53:15.026Z,101027.08
2019-01-15T05:54:18.565Z,101031.45
2019-01-15T05:55:22.152Z,101026.58
2019-01-15T05:56:25.656Z,101029.95
2019-01-15T05:57:29.163Z,101024.73
2019-01-15T05:58:32.640Z,101033.55
2019-01-15T05:59:36.124Z,101033.52
2019-01-15T06:00:39.775Z,101031.33
2019-01-15T06:01:43.279Z,101029.14
2019-01-15T06:02:46.864Z,101027.80
2019-01-15T06:03:50.454Z,101016.05
2019-01-15T06:04:53.922Z,101026.00
2019-01-15T06:05:57.424Z,101025.81
2019-01-15T06:07:00.935Z,101023.94
2019-01-15T06:08:04.766Z,101027.28
2019-01-15T06:09:09.206Z,101028.16
2019-01-15T06:10:14.673Z,101021.66
2019-01-15T06:11:18.175Z,101016.80
2019-01-15T06:12:21.792Z,101013.55
2019-01-15T06:13:25.286Z,101016.30
2019-01-15T06:14:28.885Z,101009.98
2019-01-15T06:15:32.393Z,101006.42
2019-01-15T06:16:37.515Z,101000.92
2019-01-15T06:17:41.222Z,101004.80
2019-01-15T06:18:44.713Z,101000.95
2019-01-15T06:19:48.274Z,101005.05
2019-01-15T06:20:52.165Z,101005.08
2019-01-15T06:21:57.204Z,101005.08
2019-01-15T06:23:00.818Z,101005.39
2019-01-15T06:24:04.836Z,101001.83
2019-01-15T06:25:09.997Z,101007.89
2019-01-15T06:26:13.544Z,101003.27
2019-01-15T06:27:17.058Z,100998.89
2019-01-15T06:28:20.717Z,100998.08
2019-01-15T06:29:24.212Z,100998.39
2019-01-15T06:30:27.713Z,100998.39
2019-01-15T06:31:31.347Z,100998.15
2019-01-15T06:32:34.824Z,100996.52
2019-01-15T06:33:38.608Z,100991.09
2019-01-15T06:34:42.155Z,100992.15
2019-01-15T06:35:45.717Z,100991.84
2019-01-15T06:36:49.289Z,100992.40
2019-01-15T06:37:52.781Z,100995.15
2019-01-15T06:38:56.368Z,100992.96
2019-01-15T06:39:59.863Z,100990.84
2019-01-15T06:41:03.424Z,100991.65
2019-01-15T06:42:07.246Z,100990.27
2019-01-15T06:43:10.815Z,100990.30
2019-01-15T06:44:14.350Z,100988.12
2019-01-15T06:45:25.704Z,100988.75
2019-01-15T06:46:29.276Z,100985.50
2019-01-15T06:47:32.756Z,100975.63
2019-01-15T06:48:36.328Z,100974.25
2019-01-15T06:49:39.883Z,100974.25
2019-01-15T06:50:43.372Z,100980.00
2019-01-15T06:51:46.876Z,100978.63
2019-01-15T06:52:50.509Z,100970.06
2019-01-15T06:53:54.265Z,100975.56
2019-01-15T06:54:57.858Z,100972.75
2019-01-15T06:56:01.437Z,100974.09
2019-01-15T06:57:05.205Z,100975.47
2019-01-15T06:58:08.760Z,100974.62
2019-01-15T06:59:12.392Z,100975.50
2019-01-15T07:00:21.707Z,100974.50
2019-01-15T07:01:25.267Z,100979.81
2019-01-15T07:02:28.916Z,100977.38
2019-01-15T07:03:32.542Z,100976.91
2019-01-15T07:04:36.174Z,100978.66
2019-01-15T07:05:39.742Z,100979.84
2019-01-15T07:06:43.250Z,100973.06
2019-01-15T07:07:46.883Z,100984.64
2019-01-15T07:08:50.371Z,100987.75
2019-01-15T07:09:53.987Z,100984.25
2019-01-15T07:10:57.638Z,100984.06
2019-01-15T07:12:01.140Z,100993.70
2019-01-15T07:13:04.975Z,100986.64
2019-01-15T07:14:08.594Z,100993.00
2019-01-15T07:15:12.426Z,100994.80
2019-01-15T07:16:16.039Z,100983.02
2019-01-15T07:17:19.781Z,100980.89
2019-01-15T07:18:23.332Z,100986.13
2019-01-15T07:19:26.888Z,100982.63
2019-01-15T07:20:30.483Z,100980.75
2019-01-15T07:21:34.149Z,100980.25
2019-01-15T07:22:37.641Z,100983.56
2019-01-15T07:23:41.205Z,100987.70
2019-01-15T07:26:10.182Z,100982.82
2019-01-15T07:27:13.682Z,100983.44
2019-01-15T07:28:17.168Z,100986.74
2019-01-15T07:29:20.799Z,100983.48
2019-01-15T07:30:27.492Z,100981.86
2019-01-15T07:31:31.080Z,100984.36
2019-01-15T07:32:34.647Z,100986.03
2019-01-15T07:33:38.204Z,100989.64
2019-01-15T07:34:41.697Z,100994.58
2019-01-15T07:35:46.906Z,100994.84
2019-01-15T07:36:50.478Z,100995.72
2019-01-15T07:37:54.112Z,101003.70
2019-01-15T07:38:57.673Z,100999.89
2019-01-15T07:40:01.158Z,101004.56
2019-01-15T07:41:04.804Z,101007.61
2019-01-15T07:42:08.303Z,101006.55
2019-01-15T07:43:11.869Z,101000.24
2019-01-15T07:44:15.426Z,100996.17
2019-01-15T07:45:18.991Z,100997.30
2019-01-15T07:46:22.618Z,101002.53
2019-01-15T07:47:26.845Z,101003.92
2019-01-15T07:48:30.331Z,101006.11
2019-01-15T07:49:33.994Z,101008.59
2019-01-15T07:50:37.570Z,101006.16
2019-01-15T07:51:41.271Z,101003.72
2019-01-15T07:52:45.367Z,101009.77
2019-01-15T07:53:48.863Z,101004.89
2019-01-15T07:54:52.412Z,101007.07
2019-01-15T07:55:55.991Z,101010.67
2019-01-15T07:56:59.496Z,101006.31
2019-01-15T07:58:03.087Z,101005.49
2019-01-15T07:59:06.851Z,101007.17
2019-01-15T08:00:18.796Z,101004.42
2019-01-15T08:01:22.985Z,101005.26
2019-01-15T08:02:26.570Z,101009.12
2019-01-15T08:03:30.237Z,101002.84
2019-01-15T08:04:33.812Z,101009.39
2019-01-15T08:05:37.430Z,100999.28
2019-01-15T08:06:41.053Z,100998.47
2019-01-15T08:07:44.688Z,100997.40
2019-01-15T08:08:48.273Z,100998.27
2019-01-15T08:09:51.838Z,100990.59
2019-01-15T08:10:57.066Z,100992.52
2019-01-15T08:12:00.532Z,100994.20
2019-01-15T08:13:04.468Z,100993.94
2019-01-15T08:14:12.047Z,100988.76
2019-01-15T08:15:16.292Z,100989.57
2019-01-15T08:16:19.796Z,100984.91
2019-01-15T08:17:23.389Z,100990.15
2019-01-15T08:18:27.013Z,100982.52
2019-01-15T08:19:30.532Z,100989.64
2019-01-15T08:20:34.168Z,100988.83
2019-01-15T08:21:37.659Z,100991.31
2019-01-15T08:22:41.223Z,100989.94
2019-01-15T08:23:44.778Z,100989.98
2019-01-15T08:24:48.297Z,100988.06
2019-01-15T08:25:51.867Z,100991.11
2019-01-15T08:26:55.378Z,100988.36
2019-01-15T08:27:58.862Z,100988.92
2019-01-15T08:29:02.365Z,100988.92
2019-01-15T08:30:11.582Z,100989.48
2019-01-15T08:31:15.105Z,100986.73
2019-01-15T08:32:18.969Z,100989.48
2019-01-15T08:33:22.745Z,100986.73
2019-01-15T08:34:26.928Z,100994.96
2019-01-15T08:35:30.704Z,100985.36
2019-01-15T08:36:34.267Z,100983.73
2019-01-15T08:37:37.885Z,100985.11
2019-01-15T08:38:41.379Z,100994.45
2019-01-15T08:39:44.927Z,100994.70
2019-01-15T08:40:48.466Z,100998.56
2019-01-15T08:41:52.048Z,100996.94
2019-01-15T08:42:55.670Z,100995.01
2019-01-15T08:43:59.235Z,101000.49
2019-01-15T08:45:02.712Z,100994.20
2019-01-15T08:46:06.362Z,100998.86
2019-01-15T08:47:09.898Z,100998.86
2019-01-15T08:48:15.189Z,100995.02
2019-01-15T08:49:18.697Z,100997.23
2019-01-15T08:50:25.178Z,100990.91
2019-01-15T08:51:28.986Z,100991.47
2019-01-15T08:52:32.495Z,100992.58
2019-01-15T08:53:36.164Z,100991.77
2019-01-15T08:54:39.732Z,100988.77
2019-01-15T08:55:43.259Z,100986.03
2019-01-15T08:56:46.775Z,100997.00
2019-01-15T08:57:50.426Z,100999.48
2019-01-15T08:58:53.920Z,100994.56
2019-01-15T08:59:57.406Z,100988.27
2019-01-15T09:01:00.906Z,100992.13
2019-01-15T09:02:04.472Z,100985.83
2019-01-15T09:03:08.101Z,100989.68
2019-01-15T09:04:11.700Z,100986.94
2019-01-15T09:05:15.319Z,100990.23
2019-01-15T09:06:18.908Z,100982.57
2019-01-15T09:07:22.433Z,100990.54
2019-01-15T09:08:25.928Z,100989.73
2019-01-15T09:09:29.611Z,100991.09
2019-01-15T09:10:33.183Z,100989.73
2019-01-15T09:11:36.822Z,100985.36
2019-01-15T09:12:40.613Z,100984.84
2019-01-15T09:13:44.092Z,100987.59
2019-01-15T09:14:47.590Z,100993.07
2019-01-15T09:15:51.244Z,100995.00
2019-01-15T09:16:54.723Z,100998.30
2019-01-15T09:17:58.514Z,100993.90
2019-01-15T09:19:02.002Z,100995.02
2019-01-15T09:20:08.554Z,100993.64
2019-01-15T09:21:12.123Z,101001.05
2019-01-15T09:22:15.673Z,101001.35
2019-01-15T09:23:19.271Z,101004.65
2019-01-15T09:24:22.778Z,101003.28
2019-01-15T09:25:26.325Z,101001.91
2019-01-15T09:26:29.901Z,101004.65
2019-01-15T09:27:33.444Z,100998.61
2019-01-15T09:28:36.989Z,101000.80
2019-01-15T09:29:40.640Z,100999.72
2019-01-15T09:30:44.183Z,101003.23
2019-01-15T09:31:48.027Z,101003.49
2019-01-15T09:32:51.916Z,101007.08
2019-01-15T09:33:55.561Z,101003.78
2019-01-15T09:34:59.477Z,101002.41
2019-01-15T09:36:03.029Z,101007.34
2019-01-15T09:37:08.284Z,101006.22
2019-01-15T09:38:12.254Z,101002.92
2019-01-15T09:39:15.817Z,101006.22
2019-01-15T09:40:24.070Z,101000.48
2019-01-15T09:41:27.656Z,101002.92
2019-01-15T09:42:31.116Z,101009.77
2019-01-15T09:43:34.645Z,101004.03
2019-01-15T09:44:38.309Z,101000.75
2019-01-15T09:45:41.882Z,101000.48
2019-01-15T09:46:45.410Z,101001.85
2019-01-15T09:47:50.608Z,101001.04
2019-01-15T09:48:54.411Z,100998.30
2019-01-15T09:49:57.961Z,101000.22
2019-01-15T09:51:01.505Z,101003.49
2019-01-15T09:52:13.065Z,101008.97
2019-01-15T09:53:10.855Z,101000.49
2019-01-15T09:54:14.424Z,101004.09
2019-01-15T09:55:18.000Z,101001.05
2019-01-15T09:56:21.477Z,100999.98
2019-01-15T09:57:24.998Z,101001.61
2019-01-15T09:58:28.649Z,100996.17
2019-01-15T09:59:32.222Z,101000.28
2019-01-15T10:00:35.884Z,101003.58
2019-01-15T10:01:39.412Z,100996.47
2019-01-15T10:02:43.061Z,100991.29
2019-01-15T10:03:46.642Z,100990.22
2019-01-15T10:04:50.141Z,100995.70
2019-01-15T10:05:53.859Z,100991.33
2019-01-15T10:06:57.436Z,100995.70
2019-01-15T10:08:01.007Z,101005.04
2019-01-15T10:09:08.106Z,101000.11
2019-01-15T10:10:16.705Z,100996.56
2019-01-15T10:11:20.190Z,101003.16
2019-01-15T10:12:23.770Z,101000.16
2019-01-15T10:13:27.384Z,100994.67
2019-01-15T10:14:30.895Z,100997.16
2019-01-15T10:15:34.507Z,100998.23
2019-01-15T10:16:37.972Z,100999.61
2019-01-15T10:17:41.642Z,100990.02
2019-01-15T10:18:45.201Z,100994.13
2019-01-15T10:19:48.757Z,100984.54
2019-01-15T10:20:52.360Z,100986.20
2019-01-15T10:21:55.909Z,100981.53
2019-01-15T10:22:59.556Z,100983.16
2019-01-15T10:24:03.214Z,100980.97
2019-01-15T10:25:10.011Z,100977.38
2019-01-15T10:26:13.599Z,100979.30
2019-01-15T10:27:17.244Z,100977.93
2019-01-15T10:28:20.799Z,100977.12
2019-01-15T10:29:24.773Z,100973.27
2019-01-15T10:30:35.538Z,100974.89
2019-01-15T10:31:55.368Z,100967.23
2019-01-15T10:33:07.804Z,100965.04
2019-01-15T10:34:13.184Z,100971.89
2019-01-15T10:35:19.739Z,100965.30
2019-01-15T10:36:22.075Z,100963.11
2019-01-15T10:37:25.733Z,100967.78
2019-01-15T10:38:30.075Z,100957.94
2019-01-15T10:39:33.561Z,100965.59
2019-01-15T10:40:37.194Z,100962.60
2019-01-15T10:41:40.762Z,100962.91
2019-01-15T10:42:44.334Z,100966.16
2019-01-15T10:43:47.922Z,100958.50
2019-01-15T10:44:51.464Z,100960.97
2019-01-15T10:45:55.080Z,100959.86
2019-01-15T10:46:58.654Z,100953.27
2019-01-15T10:48:02.159Z,100957.38
2019-01-15T10:49:05.792Z,100952.16
2019-01-15T10:50:12.529Z,100953.52
2019-01-15T10:51:16.091Z,100944.23
2019-01-15T10:52:19.638Z,100948.85
2019-01-15T10:53:23.247Z,100950.48
2019-01-15T10:54:26.770Z,100950.73
2019-01-15T10:55:30.404Z,100949.36
2019-01-15T10:56:33.973Z,100947.18
2019-01-15T10:57:37.620Z,100940.33
2019-01-15T10:58:41.250Z,100943.88
2019-01-15T10:59:44.806Z,100949.36
2019-01-15T11:00:48.362Z,100945.25
2019-01-15T11:01:51.918Z,100943.07
2019-01-15T11:02:55.429Z,100947.73
2019-01-15T11:03:59.781Z,100941.70
2019-01-15T11:05:04.317Z,100932.97
2019-01-15T11:06:07.949Z,100939.26
2019-01-15T11:07:11.509Z,100939.77
2019-01-15T11:08:15.162Z,100935.70
2019-01-15T11:09:18.657Z,100934.84
2019-01-15T11:10:22.221Z,100931.30
2019-01-15T11:11:25.720Z,100934.29
2019-01-15T11:12:29.216Z,100927.44
2019-01-15T11:13:32.757Z,100935.10
2019-01-15T11:14:36.678Z,100932.06
2019-01-15T11:15:43.363Z,100928.20
2019-01-15T11:16:45.428Z,100927.44
2019-01-15T11:17:49.007Z,100926.83
2019-01-15T11:18:52.671Z,100933.13
2019-01-15T11:19:56.201Z,100924.91
2019-01-15T11:20:59.845Z,100922.98
2019-01-15T11:22:03.738Z,100919.98
2019-01-15T11:23:07.388Z,100925.16
2019-01-15T11:24:10.947Z,100922.42
2019-01-15T11:25:15.483Z,100922.72
2019-01-15T11:26:19.041Z,100920.80
2019-01-15T11:27:22.537Z,100929.57
2019-01-15T11:28:26.049Z,100930.13
2019-01-15T11:29:29.576Z,100932.06
2019-01-15T11:30:33.139Z,100930.44
2019-01-15T11:31:36.634Z,100927.69
2019-01-15T11:32:40.130Z,100930.44
2019-01-15T11:33:43.659Z,100926.88
2019-01-15T11:34:47.219Z,100927.44
2019-01-15T11:35:50.785Z,100927.44
2019-01-15T11:36:54.420Z,100925.51
2019-01-15T11:37:57.912Z,100930.44
2019-01-15T11:39:01.434Z,100926.32
2019-01-15T11:40:08.371Z,100922.21
2019-01-15T11:41:12.167Z,100922.72
2019-01-15T11:42:15.831Z,100918.61
2019-01-15T11:43:19.467Z,100919.67
2019-01-15T11:44:23.041Z,100920.80
2019-01-15T11:45:26.609Z,100913.38
2019-01-15T11:46:30.182Z,100916.94
2019-01-15T11:47:33.811Z,100921.61
2019-01-15T11:48:37.376Z,100914.75
2019-01-15T11:49:40.962Z,100916.13
2019-01-15T11:50:44.456Z,100913.38
2019-01-15T11:51:47.954Z,100910.39
2019-01-15T11:52:51.512Z,100912.62
2019-01-15T11:53:55.087Z,100911.80
2019-01-15T11:54:58.604Z,100918.36
2019-01-15T11:56:02.089Z,100913.98
2019-01-15T11:57:05.643Z,100908.00
2019-01-15T11:58:09.318Z,100910.44
2019-01-15T11:59:12.905Z,100910.73
2019-01-15T12:00:21.078Z,100913.73
2019-01-15T12:01:26.231Z,100913.73
2019-01-15T12:02:31.890Z,100912.06
2019-01-15T12:03:37.212Z,100913.43
2019-01-15T12:04:45.436Z,100913.12
2019-01-15T12:06:06.702Z,100917.23
2019-01-15T12:07:28.111Z,100909.27
2019-01-15T12:08:36.708Z,100910.08
2019-01-15T12:09:41.952Z,100910.34
2019-01-15T12:11:03.299Z,100906.23